Time,TemperatureF,DewpointF,PressureIn,WindDirection,WindDirectionDegrees,WindSpeedMPH,WindSpeedGustMPH,Humidity,HourlyPrecipIn,Conditions,Clouds,dailyrainin,SolarRadiationWatts/m^2,SoftwareType,DateUTC
2013-12-31 00:11:00,29.0,29.0,-100.00,North,-999,0.0,3.0,98,0.00,,,0.00,0.000000,,2013-12-31 08:11:00,
2013-12-31 00:22:00,29.0,29.0,-100.00,North,-999,0.0,3.0,98,0.00,,,0.00,0.000000,,2013-12-31 08:22:00,
2013-12-31 00:32:00,29.0,29.0,-100.00,North,-999,0.0,3.0,98,0.00,,,0.00,0.000000,,2013-12-31 08:32:00,
2013-12-31 00:42:00,29.0,29.0,-100.00,North,-999,0.0,3.0,98,0.00,,,0.00,0.000000,,2013-12-31 08:42:00,
2013-12-31 01:11:00,29.0,29.0,-100.00,SSE,166,1.0,5.0,98,0.00,,,0.00,0.000000,,2013-12-31 09:11:00,
2013-12-31 01:22:00,29.0,29.0,-100.00,SSE,166,1.0,5.0,98,0.00,,,0.00,0.000000,,2013-12-31 09:22:00,
2013-12-31 01:33:00,29.0,29.0,-100.00,SSE,166,1.0,5.0,98,0.00,,,0.00,0.000000,,2013-12-31 09:33:00,
2013-12-31 01:43:00,29.0,29.0,-100.00,SSE,166,1.0,5.0,98,0.00,,,0.00,0.000000,,2013-12-31 09:43:00,
2013-12-31 02:12:00,29.0,29.0,-100.00,North,-999,0.0,5.0,98,-99.99,,,-99.99,0.000000,,2013-12-31 10:12:00,
2013-12-31 02:23:00,29.0,29.0,-100.00,North,-999,0.0,5.0,98,-99.99,,,-99.99,0.000000,,2013-12-31 10:23:00,
2013-12-31 02:33:00,29.0,29.0,-100.00,North,-999,0.0,5.0,98,-99.99,,,-99.99,0.000000,,2013-12-31 10:33:00,
2013-12-31 02:43:00,29.0,29.0,-100.00,North,-999,0.0,5.0,98,-99.99,,,-99.99,0.000000,,2013-12-31 10:43:00,
2013-12-31 03:11:00,29.0,29.0,-100.00,North,-999,0.0,3.0,98,0.00,,,0.00,0.000000,,2013-12-31 11:11:00,
2013-12-31 04:22:00,30.0,29.0,-100.00,North,-999,0.0,5.0,97,0.00,,,0.00,0.000000,,2013-12-31 12:22:00,
2013-12-31 04:32:00,30.0,29.0,-100.00,North,-999,0.0,5.0,97,0.00,,,0.00,0.000000,,2013-12-31 12:32:00,
2013-12-31 05:12:00,29.0,27.0,-100.00,North,-999,0.0,4.0,94,-99.99,,,0.00,0.000000,,2013-12-31 13:12:00,
2013-12-31 05:21:00,29.0,27.0,-100.00,North,-999,0.0,4.0,94,-99.99,,,0.00,0.000000,,2013-12-31 13:21:00,
2013-12-31 05:32:00,29.0,27.0,-100.00,North,-999,0.0,4.0,94,-99.99,,,0.00,0.000000,,2013-12-31 13:32:00,
2013-12-31 05:42:00,29.0,27.0,-100.00,North,-999,0.0,4.0,94,-99.99,,,0.00,0.000000,,2013-12-31 13:42:00,
2013-12-31 06:11:00,29.0,28.0,-100.00,WSW,251,1.0,4.0,96,0.00,,,0.00,0.000000,,2013-12-31 14:11:00,
2013-12-31 06:22:00,29.0,28.0,-100.00,WSW,251,1.0,4.0,96,0.00,,,0.00,0.000000,,2013-12-31 14:22:00,
2013-12-31 06:32:00,29.0,28.0,-100.00,WSW,251,1.0,4.0,96,0.00,,,0.00,0.000000,,2013-12-31 14:32:00,
2013-12-31 06:42:00,29.0,28.0,-100.00,WSW,251,1.0,4.0,96,0.00,,,0.00,0.000000,,2013-12-31 14:42:00,
2013-12-31 07:11:00,30.0,27.0,-100.00,SW,230,5.0,8.0,87,0.00,,,-99.99,0.000000,,2013-12-31 15:11:00,
2013-12-31 07:22:00,30.0,27.0,-100.00,SW,230,5.0,8.0,87,0.00,,,-99.99,0.000000,,2013-12-31 15:22:00,
2013-12-31 07:33:00,30.0,27.0,-100.00,SW,230,5.0,8.0,87,0.00,,,-99.99,0.000000,,2013-12-31 15:33:00,
2013-12-31 07:43:00,30.0,27.0,-100.00,SW,230,5.0,8.0,87,0.00,,,-99.99,0.000000,,2013-12-31 15:43:00,
2013-12-31 08:23:00,31.0,25.0,-100.00,SW,228,7.0,9.0,78,0.00,,,0.00,4.000000,,2013-12-31 16:23:00,
2013-12-31 08:33:00,31.0,25.0,-100.00,SW,228,7.0,9.0,78,0.00,,,0.00,4.000000,,2013-12-31 16:33:00,
2013-12-31 08:42:00,31.0,25.0,-100.00,SW,228,7.0,9.0,78,0.00,,,0.00,4.000000,,2013-12-31 16:42:00,
2013-12-31 11:12:00,38.0,26.0,-100.00,SSE,166,2.0,5.0,62,0.00,,,0.00,321.000000,,2013-12-31 19:12:00,
2013-12-31 11:22:00,38.0,26.0,-100.00,SSE,166,2.0,5.0,62,0.00,,,0.00,321.000000,,2013-12-31 19:22:00,
2013-12-31 11:32:00,38.0,26.0,-100.00,SSE,166,2.0,5.0,62,0.00,,,0.00,321.000000,,2013-12-31 19:32:00,
2013-12-31 11:42:00,38.0,26.0,-100.00,SSE,166,2.0,5.0,62,0.00,,,0.00,321.000000,,2013-12-31 19:42:00,
2013-12-31 12:11:00,43.0,24.0,-100.00,North,-999,0.0,5.0,46,0.00,,,0.00,430.000000,,2013-12-31 20:11:00,
2013-12-31 12:21:00,43.0,24.0,-100.00,North,-999,0.0,5.0,46,0.00,,,0.00,430.000000,,2013-12-31 20:21:00,
2013-12-31 12:32:00,43.0,24.0,-100.00,North,-999,0.0,5.0,46,0.00,,,0.00,430.000000,,2013-12-31 20:32:00,
2013-12-31 12:42:00,43.0,24.0,-100.00,North,-999,0.0,5.0,46,0.00,,,0.00,430.000000,,2013-12-31 20:42:00,
2013-12-31 13:21:00,45.0,26.0,-100.00,North,-999,0.0,5.0,47,0.00,,,0.00,400.000000,,2013-12-31 21:21:00,
2013-12-31 13:33:00,45.0,26.0,-100.00,North,-999,0.0,5.0,47,0.00,,,0.00,400.000000,,2013-12-31 21:33:00,
2013-12-31 13:43:00,45.0,26.0,-100.00,North,-999,0.0,5.0,47,0.00,,,0.00,400.000000,,2013-12-31 21:43:00,
2013-12-31 15:12:00,50.0,30.0,-100.00,North,-999,0.0,6.0,46,0.00,,,0.00,451.000000,,2013-12-31 23:12:00,
2013-12-31 15:22:00,50.0,30.0,-100.00,North,-999,0.0,6.0,46,0.00,,,0.00,451.000000,,2013-12-31 23:22:00,
2013-12-31 15:33:00,50.0,30.0,-100.00,North,-999,0.0,6.0,46,0.00,,,0.00,451.000000,,2013-12-31 23:33:00,
2013-12-31 15:42:00,50.0,30.0,-100.00,North,-999,0.0,6.0,46,0.00,,,0.00,451.000000,,2013-12-31 23:42:00,
2013-12-31 16:11:00,46.0,28.0,-100.00,NE,51,3.0,6.0,50,0.00,,,0.00,262.000000,,2014-01-01 00:11:00,
2013-12-31 16:22:00,46.0,28.0,-100.00,NE,51,3.0,6.0,50,0.00,,,0.00,262.000000,,2014-01-01 00:22:00,
2013-12-31 16:31:00,46.0,28.0,-100.00,NE,51,3.0,6.0,50,0.00,,,0.00,262.000000,,2014-01-01 00:31:00,
2013-12-31 16:42:00,46.0,28.0,-100.00,NE,51,3.0,6.0,50,0.00,,,0.00,262.000000,,2014-01-01 00:42:00,
2013-12-31 17:11:00,41.0,29.0,-100.00,SSE,151,1.0,4.0,61,0.00,,,0.00,64.000000,,2014-01-01 01:11:00,
2013-12-31 17:21:00,41.0,29.0,-100.00,SSE,151,1.0,4.0,61,0.00,,,0.00,64.000000,,2014-01-01 01:21:00,
2013-12-31 17:32:00,41.0,29.0,-100.00,SSE,151,1.0,4.0,61,0.00,,,0.00,64.000000,,2014-01-01 01:32:00,
2013-12-31 17:42:00,41.0,29.0,-100.00,SSE,151,1.0,4.0,61,0.00,,,0.00,64.000000,,2014-01-01 01:42:00,
2013-12-31 18:11:00,34.0,28.0,-100.00,North,-999,0.0,3.0,79,0.00,,,0.00,0.000000,,2014-01-01 02:11:00,
2013-12-31 18:22:00,34.0,28.0,-100.00,North,-999,0.0,3.0,79,0.00,,,0.00,0.000000,,2014-01-01 02:22:00,
2013-12-31 18:32:00,34.0,28.0,-100.00,North,-999,0.0,3.0,79,0.00,,,0.00,0.000000,,2014-01-01 02:32:00,
2013-12-31 18:42:00,34.0,28.0,-100.00,North,-999,0.0,3.0,79,0.00,,,0.00,0.000000,,2014-01-01 02:42:00,
2013-12-31 19:12:00,33.0,32.0,-100.00,SW,233,1.0,4.0,95,0.00,,,0.00,0.000000,,2014-01-01 03:12:00,
2013-12-31 19:22:00,33.0,32.0,-100.00,SW,233,1.0,4.0,95,0.00,,,0.00,0.000000,,2014-01-01 03:22:00,
2013-12-31 19:33:00,33.0,32.0,-100.00,SW,233,1.0,4.0,95,0.00,,,0.00,0.000000,,2014-01-01 03:33:00,
2013-12-31 19:43:00,33.0,32.0,-100.00,SW,233,1.0,4.0,95,0.00,,,0.00,0.000000,,2014-01-01 03:43:00,
2013-12-31 20:13:00,36.0,23.0,-100.00,SW,233,7.0,9.0,59,0.00,,,0.00,0.000000,,2014-01-01 04:13:00,
2013-12-31 20:23:00,36.0,23.0,-100.00,SW,233,7.0,9.0,59,0.00,,,0.00,0.000000,,2014-01-01 04:23:00,
2013-12-31 20:33:00,36.0,23.0,-100.00,SW,233,7.0,9.0,59,0.00,,,0.00,0.000000,,2014-01-01 04:33:00,
2013-12-31 21:12:00,33.0,23.0,-100.00,North,-999,0.0,8.0,65,0.00,,,0.00,0.000000,,2014-01-01 05:12:00,
2013-12-31 21:22:00,33.0,23.0,-100.00,North,-999,0.0,8.0,65,0.00,,,0.00,0.000000,,2014-01-01 05:22:00,
2013-12-31 21:33:00,33.0,23.0,-100.00,North,-999,0.0,8.0,65,0.00,,,0.00,0.000000,,2014-01-01 05:33:00,
2013-12-31 21:42:00,33.0,23.0,-100.00,North,-999,0.0,8.0,65,0.00,,,0.00,0.000000,,2014-01-01 05:42:00,
2013-12-31 22:12:00,31.0,25.0,-100.00,North,-999,0.0,4.0,78,0.00,,,0.00,0.000000,,2014-01-01 06:12:00,
2013-12-31 22:22:00,31.0,25.0,-100.00,North,-999,0.0,4.0,78,0.00,,,0.00,0.000000,,2014-01-01 06:22:00,
2013-12-31 22:32:00,31.0,25.0,-100.00,North,-999,0.0,4.0,78,0.00,,,0.00,0.000000,,2014-01-01 06:32:00,
2013-12-31 22:42:00,31.0,25.0,-100.00,North,-999,0.0,4.0,78,0.00,,,0.00,0.000000,,2014-01-01 06:42:00,
2013-12-31 23:12:00,32.0,24.0,-100.00,North,-999,0.0,5.0,71,0.00,,,0.00,0.000000,,2014-01-01 07:12:00,
2013-12-31 23:22:00,32.0,24.0,-100.00,North,-999,0.0,5.0,71,0.00,,,0.00,0.000000,,2014-01-01 07:22:00,
2013-12-31 23:32:00,32.0,24.0,-100.00,North,-999,0.0,5.0,71,0.00,,,0.00,0.000000,,2014-01-01 07:32:00,
2013-12-31 23:42:00,32.0,24.0,-100.00,North,-999,0.0,5.0,71,0.00,,,0.00,0.000000,,2014-01-01 07:42:00,